sensor_id;sensor_type;location;lat;lon;timestamp;temperature;humidity
9383;DHT22;4731;49.708;10.816;2022-10-31T00:01:44;10.80;99.90
9383;DHT22;4731;49.708;10.816;2022-10-31T00:04:11;10.80;99.90
9383;DHT22;4731;49.708;10.816;2022-10-31T00:06:38;10.90;99.90
9383;DHT22;4731;49.708;10.816;2022-10-31T00:09:06;10.90;99.90
9383;DHT22;4731;49.708;10.816;2022-10-31T00:11:33;10.80;99.90
9383;DHT22;4731;49.708;10.816;2022-10-31T00:14:00;10.70;99.90
9383;DHT22;4731;49.708;10.816;2022-10-31T00:16:28;10.70;99.90
9383;DHT22;4731;49.708;10.816;2022-10-31T00:18:57;10.60;99.90
9383;DHT22;4731;49.708;10.816;2022-10-31T00:21:24;11.80;99.90
9383;DHT22;4731;49.708;10.816;2022-10-31T00:23:51;11.80;99.90
9383;DHT22;4731;49.708;10.816;2022-10-31T00:26:19;10.50;99.90
9383;DHT22;4731;49.708;10.816;2022-10-31T00:28:47;10.40;99.90
9383;DHT22;4731;49.708;10.816;2022-10-31T00:31:14;11.70;99.90
9383;DHT22;4731;49.708;10.816;2022-10-31T00:33:42;10.40;99.90
9383;DHT22;4731;49.708;10.816;2022-10-31T00:36:12;10.40;99.90
9383;DHT22;4731;49.708;10.816;2022-10-31T00:38:39;10.40;99.90
9383;DHT22;4731;49.708;10.816;2022-10-31T00:41:06;10.50;99.90
9383;DHT22;4731;49.708;10.816;2022-10-31T00:43:34;10.50;99.90
9383;DHT22;4731;49.708;10.816;2022-10-31T00:46:01;10.50;99.90
9383;DHT22;4731;49.708;10.816;2022-10-31T00:48:28;10.50;99.90
9383;DHT22;4731;49.708;10.816;2022-10-31T00:50:55;12.60;99.90
9383;DHT22;4731;49.708;10.816;2022-10-31T00:53:22;10.50;99.90
9383;DHT22;4731;49.708;10.816;2022-10-31T00:55:49;10.70;99.90
9383;DHT22;4731;49.708;10.816;2022-10-31T00:58:16;10.60;99.90
9383;DHT22;4731;49.708;10.816;2022-10-31T01:00:44;10.50;99.90
9383;DHT22;4731;49.708;10.816;2022-10-31T01:03:13;10.50;99.90
9383;DHT22;4731;49.708;10.816;2022-10-31T01:05:39;10.90;99.90
9383;DHT22;4731;49.708;10.816;2022-10-31T01:08:06;10.50;99.90
9383;DHT22;4731;49.708;10.816;2022-10-31T01:10:33;10.50;99.90
9383;DHT22;4731;49.708;10.816;2022-10-31T01:13:00;10.80;99.90
9383;DHT22;4731;49.708;10.816;2022-10-31T01:15:27;10.50;99.90
9383;DHT22;4731;49.708;10.816;2022-10-31T01:17:55;10.30;99.90
9383;DHT22;4731;49.708;10.816;2022-10-31T01:20:22;10.30;99.90
9383;DHT22;4731;49.708;10.816;2022-10-31T01:22:48;10.20;99.90
9383;DHT22;4731;49.708;10.816;2022-10-31T01:25:16;10.20;99.90
9383;DHT22;4731;49.708;10.816;2022-10-31T01:27:42;10.20;99.90
9383;DHT22;4731;49.708;10.816;2022-10-31T01:30:11;10.20;99.90
9383;DHT22;4731;49.708;10.816;2022-10-31T01:32:37;10.20;99.90
9383;DHT22;4731;49.708;10.816;2022-10-31T01:35:06;10.20;99.90
9383;DHT22;4731;49.708;10.816;2022-10-31T01:37:33;10.10;99.90
9383;DHT22;4731;49.708;10.816;2022-10-31T01:40:00;10.10;99.90
9383;DHT22;4731;49.708;10.816;2022-10-31T01:42:26;12.40;99.90
9383;DHT22;4731;49.708;10.816;2022-10-31T01:44:56;10.10;99.90
9383;DHT22;4731;49.708;10.816;2022-10-31T01:47:36;12.20;99.90
9383;DHT22;4731;49.708;10.816;2022-10-31T01:50:11;10.60;99.90
9383;DHT22;4731;49.708;10.816;2022-10-31T01:52:41;11.20;99.90
9383;DHT22;4731;49.708;10.816;2022-10-31T01:55:12;12.60;99.90
9383;DHT22;4731;49.708;10.816;2022-10-31T01:57:43;10.20;99.90
9383;DHT22;4731;49.708;10.816;2022-10-31T02:00:12;10.20;99.90
9383;DHT22;4731;49.708;10.816;2022-10-31T02:02:39;10.20;99.90
9383;DHT22;4731;49.708;10.816;2022-10-31T02:05:09;10.20;99.90
9383;DHT22;4731;49.708;10.816;2022-10-31T02:07:42;10.10;99.90
9383;DHT22;4731;49.708;10.816;2022-10-31T02:10:09;10.60;99.90
9383;DHT22;4731;49.708;10.816;2022-10-31T02:12:36;10.20;99.90
9383;DHT22;4731;49.708;10.816;2022-10-31T02:15:05;10.20;99.90
9383;DHT22;4731;49.708;10.816;2022-10-31T02:17:33;10.20;99.90
9383;DHT22;4731;49.708;10.816;2022-10-31T02:20:11;10.20;99.90
9383;DHT22;4731;49.708;10.816;2022-10-31T02:28:45;10.10;99.90
9383;DHT22;4731;49.708;10.816;2022-10-31T02:31:25;10.20;99.90
9383;DHT22;4731;49.708;10.816;2022-10-31T02:33:57;10.10;99.90
9383;DHT22;4731;49.708;10.816;2022-10-31T02:36:28;10.00;99.90
9383;DHT22;4731;49.708;10.816;2022-10-31T02:39:02;10.10;99.90
9383;DHT22;4731;49.708;10.816;2022-10-31T02:41:40;12.30;99.90
9383;DHT22;4731;49.708;10.816;2022-10-31T02:44:16;11.10;99.90
9383;DHT22;4731;49.708;10.816;2022-10-31T02:46:49;10.10;99.90
9383;DHT22;4731;49.708;10.816;2022-10-31T02:49:23;10.20;99.90
9383;DHT22;4731;49.708;10.816;2022-10-31T02:51:51;10.20;99.90
9383;DHT22;4731;49.708;10.816;2022-10-31T02:54:21;10.20;99.90
9383;DHT22;4731;49.708;10.816;2022-10-31T02:56:49;10.20;99.90
9383;DHT22;4731;49.708;10.816;2022-10-31T02:59:17;10.30;99.90
9383;DHT22;4731;49.708;10.816;2022-10-31T03:01:59;10.30;99.90
9383;DHT22;4731;49.708;10.816;2022-10-31T03:04:53;10.20;99.90
9383;DHT22;4731;49.708;10.816;2022-10-31T03:07:28;10.20;99.90
9383;DHT22;4731;49.708;10.816;2022-10-31T03:10:04;11.70;99.90
9383;DHT22;4731;49.708;10.816;2022-10-31T03:12:38;10.20;99.90
9383;DHT22;4731;49.708;10.816;2022-10-31T03:15:13;10.30;99.90
9383;DHT22;4731;49.708;10.816;2022-10-31T03:17:50;12.10;99.90
9383;DHT22;4731;49.708;10.816;2022-10-31T03:20:21;10.20;99.90
9383;DHT22;4731;49.708;10.816;2022-10-31T03:22:51;10.20;99.90
9383;DHT22;4731;49.708;10.816;2022-10-31T03:25:18;10.10;99.90
9383;DHT22;4731;49.708;10.816;2022-10-31T03:27:46;10.10;99.90
9383;DHT22;4731;49.708;10.816;2022-10-31T03:30:14;11.60;99.90
9383;DHT22;4731;49.708;10.816;2022-10-31T03:32:44;10.10;99.90
9383;DHT22;4731;49.708;10.816;2022-10-31T03:35:15;10.90;99.90
9383;DHT22;4731;49.708;10.816;2022-10-31T03:37:44;10.00;99.90
9383;DHT22;4731;49.708;10.816;2022-10-31T03:40:13;10.00;99.90
9383;DHT22;4731;49.708;10.816;2022-10-31T03:42:43;9.90;99.90
9383;DHT22;4731;49.708;10.816;2022-10-31T03:45:15;9.90;99.90
9383;DHT22;4731;49.708;10.816;2022-10-31T03:47:45;10.00;99.90
9383;DHT22;4731;49.708;10.816;2022-10-31T03:50:14;9.70;99.90
9383;DHT22;4731;49.708;10.816;2022-10-31T03:52:44;9.70;99.90
9383;DHT22;4731;49.708;10.816;2022-10-31T03:55:17;9.50;99.90
9383;DHT22;4731;49.708;10.816;2022-10-31T03:57:50;9.40;99.90
9383;DHT22;4731;49.708;10.816;2022-10-31T04:00:19;10.10;99.90
9383;DHT22;4731;49.708;10.816;2022-10-31T04:02:51;9.40;99.90
9383;DHT22;4731;49.708;10.816;2022-10-31T04:05:20;9.30;99.90
9383;DHT22;4731;49.708;10.816;2022-10-31T04:07:51;9.50;99.90
9383;DHT22;4731;49.708;10.816;2022-10-31T04:10:21;11.80;99.90
9383;DHT22;4731;49.708;10.816;2022-10-31T04:12:52;9.50;99.90
9383;DHT22;4731;49.708;10.816;2022-10-31T04:15:22;9.60;99.90
9383;DHT22;4731;49.708;10.816;2022-10-31T04:17:53;10.10;99.90
9383;DHT22;4731;49.708;10.816;2022-10-31T04:20:30;9.70;99.90
9383;DHT22;4731;49.708;10.816;2022-10-31T04:22:57;11.20;99.90
9383;DHT22;4731;49.708;10.816;2022-10-31T04:25:24;9.60;99.90
9383;DHT22;4731;49.708;10.816;2022-10-31T04:27:50;9.60;99.90
9383;DHT22;4731;49.708;10.816;2022-10-31T04:30:17;9.60;99.90
9383;DHT22;4731;49.708;10.816;2022-10-31T04:32:44;9.70;99.90
9383;DHT22;4731;49.708;10.816;2022-10-31T04:35:12;9.60;99.90
9383;DHT22;4731;49.708;10.816;2022-10-31T04:37:39;9.60;99.90
9383;DHT22;4731;49.708;10.816;2022-10-31T04:40:07;9.60;99.90
9383;DHT22;4731;49.708;10.816;2022-10-31T04:42:34;9.70;99.90
9383;DHT22;4731;49.708;10.816;2022-10-31T04:45:00;11.30;99.90
9383;DHT22;4731;49.708;10.816;2022-10-31T04:47:30;9.60;99.90
9383;DHT22;4731;49.708;10.816;2022-10-31T04:49:56;9.70;99.90
9383;DHT22;4731;49.708;10.816;2022-10-31T04:52:25;9.60;99.90
9383;DHT22;4731;49.708;10.816;2022-10-31T04:54:51;9.60;99.90
9383;DHT22;4731;49.708;10.816;2022-10-31T04:57:18;9.60;99.90
9383;DHT22;4731;49.708;10.816;2022-10-31T04:59:45;9.70;99.90
9383;DHT22;4731;49.708;10.816;2022-10-31T05:02:12;9.70;99.90
9383;DHT22;4731;49.708;10.816;2022-10-31T05:04:39;9.70;99.90
9383;DHT22;4731;49.708;10.816;2022-10-31T05:07:05;9.90;99.90
9383;DHT22;4731;49.708;10.816;2022-10-31T05:09:33;9.80;99.90
9383;DHT22;4731;49.708;10.816;2022-10-31T05:12:00;11.90;99.90
9383;DHT22;4731;49.708;10.816;2022-10-31T05:14:27;9.80;99.90
9383;DHT22;4731;49.708;10.816;2022-10-31T05:16:54;9.80;99.90
9383;DHT22;4731;49.708;10.816;2022-10-31T05:19:20;9.90;99.90
9383;DHT22;4731;49.708;10.816;2022-10-31T05:21:47;9.90;99.90
9383;DHT22;4731;49.708;10.816;2022-10-31T05:24:14;9.80;99.90
9383;DHT22;4731;49.708;10.816;2022-10-31T05:26:42;9.90;99.90
9383;DHT22;4731;49.708;10.816;2022-10-31T05:29:09;10.40;99.90
9383;DHT22;4731;49.708;10.816;2022-10-31T05:31:36;10.40;99.90
9383;DHT22;4731;49.708;10.816;2022-10-31T05:34:03;9.90;99.90
9383;DHT22;4731;49.708;10.816;2022-10-31T05:36:29;10.00;99.90
9383;DHT22;4731;49.708;10.816;2022-10-31T05:38:56;10.00;99.90
9383;DHT22;4731;49.708;10.816;2022-10-31T05:43:52;9.80;99.90
9383;DHT22;4731;49.708;10.816;2022-10-31T05:46:19;9.80;99.90
9383;DHT22;4731;49.708;10.816;2022-10-31T05:48:47;9.70;99.90
9383;DHT22;4731;49.708;10.816;2022-10-31T05:51:14;9.70;99.90
9383;DHT22;4731;49.708;10.816;2022-10-31T05:53:41;9.70;99.90
9383;DHT22;4731;49.708;10.816;2022-10-31T05:56:08;9.60;99.90
9383;DHT22;4731;49.708;10.816;2022-10-31T05:58:35;9.70;99.90
9383;DHT22;4731;49.708;10.816;2022-10-31T06:01:03;10.00;99.90
9383;DHT22;4731;49.708;10.816;2022-10-31T06:03:31;9.90;99.90
9383;DHT22;4731;49.708;10.816;2022-10-31T06:05:57;12.30;99.90
9383;DHT22;4731;49.708;10.816;2022-10-31T06:08:24;10.70;99.90
9383;DHT22;4731;49.708;10.816;2022-10-31T06:10:51;10.00;99.90
9383;DHT22;4731;49.708;10.816;2022-10-31T06:13:19;10.10;99.90
9383;DHT22;4731;49.708;10.816;2022-10-31T06:15:46;10.10;99.90
9383;DHT22;4731;49.708;10.816;2022-10-31T06:18:14;10.10;99.90
9383;DHT22;4731;49.708;10.816;2022-10-31T06:20:41;10.10;99.90
9383;DHT22;4731;49.708;10.816;2022-10-31T06:23:08;10.20;99.90
9383;DHT22;4731;49.708;10.816;2022-10-31T06:25:35;10.20;99.90
9383;DHT22;4731;49.708;10.816;2022-10-31T06:28:02;11.00;99.90
9383;DHT22;4731;49.708;10.816;2022-10-31T06:30:29;10.20;99.90
9383;DHT22;4731;49.708;10.816;2022-10-31T06:33:02;12.00;99.90
9383;DHT22;4731;49.708;10.816;2022-10-31T06:35:30;10.20;99.90
9383;DHT22;4731;49.708;10.816;2022-10-31T06:37:57;10.20;99.90
9383;DHT22;4731;49.708;10.816;2022-10-31T06:40:24;10.20;99.90
9383;DHT22;4731;49.708;10.816;2022-10-31T06:42:58;12.50;99.90
9383;DHT22;4731;49.708;10.816;2022-10-31T06:45:25;10.20;99.90
9383;DHT22;4731;49.708;10.816;2022-10-31T06:47:52;10.30;99.90
9383;DHT22;4731;49.708;10.816;2022-10-31T06:50:19;10.30;99.90
9383;DHT22;4731;49.708;10.816;2022-10-31T06:52:51;10.30;99.90
9383;DHT22;4731;49.708;10.816;2022-10-31T06:55:20;10.30;99.90
9383;DHT22;4731;49.708;10.816;2022-10-31T06:57:51;10.30;99.90
9383;DHT22;4731;49.708;10.816;2022-10-31T07:00:18;10.20;99.90
9383;DHT22;4731;49.708;10.816;2022-10-31T07:02:53;10.30;99.90
9383;DHT22;4731;49.708;10.816;2022-10-31T07:05:20;11.00;99.90
9383;DHT22;4731;49.708;10.816;2022-10-31T07:07:47;10.30;99.90
9383;DHT22;4731;49.708;10.816;2022-10-31T07:10:16;12.80;99.90
9383;DHT22;4731;49.708;10.816;2022-10-31T07:12:42;10.50;99.90
9383;DHT22;4731;49.708;10.816;2022-10-31T07:15:09;10.40;99.90
9383;DHT22;4731;49.708;10.816;2022-10-31T07:20:04;10.60;99.90
9383;DHT22;4731;49.708;10.816;2022-10-31T07:22:33;10.60;99.90
9383;DHT22;4731;49.708;10.816;2022-10-31T07:25:00;10.70;99.90
9383;DHT22;4731;49.708;10.816;2022-10-31T07:27:28;12.40;99.90
9383;DHT22;4731;49.708;10.816;2022-10-31T07:29:55;10.70;99.90
9383;DHT22;4731;49.708;10.816;2022-10-31T07:32:21;13.50;99.90
9383;DHT22;4731;49.708;10.816;2022-10-31T07:34:48;10.90;99.90
9383;DHT22;4731;49.708;10.816;2022-10-31T07:37:15;11.90;99.90
9383;DHT22;4731;49.708;10.816;2022-10-31T07:39:43;11.00;99.90
9383;DHT22;4731;49.708;10.816;2022-10-31T07:42:09;11.10;99.90
9383;DHT22;4731;49.708;10.816;2022-10-31T07:44:37;11.00;99.90
9383;DHT22;4731;49.708;10.816;2022-10-31T07:47:04;11.00;99.90
9383;DHT22;4731;49.708;10.816;2022-10-31T07:49:31;11.10;99.90
9383;DHT22;4731;49.708;10.816;2022-10-31T07:51:58;13.90;99.90
9383;DHT22;4731;49.708;10.816;2022-10-31T07:54:25;11.10;99.90
9383;DHT22;4731;49.708;10.816;2022-10-31T07:56:52;12.10;99.90
9383;DHT22;4731;49.708;10.816;2022-10-31T07:59:18;11.30;99.90
9383;DHT22;4731;49.708;10.816;2022-10-31T08:01:47;11.50;99.90
9383;DHT22;4731;49.708;10.816;2022-10-31T08:04:14;11.80;99.90
9383;DHT22;4731;49.708;10.816;2022-10-31T08:06:41;11.80;99.90
9383;DHT22;4731;49.708;10.816;2022-10-31T08:09:08;11.70;99.90
9383;DHT22;4731;49.708;10.816;2022-10-31T08:11:34;13.10;99.90
9383;DHT22;4731;49.708;10.816;2022-10-31T08:14:01;11.30;99.90
9383;DHT22;4731;49.708;10.816;2022-10-31T08:16:28;11.30;99.90
9383;DHT22;4731;49.708;10.816;2022-10-31T08:18:56;11.60;99.90
9383;DHT22;4731;49.708;10.816;2022-10-31T08:21:23;11.40;99.90
9383;DHT22;4731;49.708;10.816;2022-10-31T08:23:50;11.60;99.90
9383;DHT22;4731;49.708;10.816;2022-10-31T08:26:17;11.70;99.90
9383;DHT22;4731;49.708;10.816;2022-10-31T08:28:44;12.00;99.90
9383;DHT22;4731;49.708;10.816;2022-10-31T08:31:11;12.10;99.90
9383;DHT22;4731;49.708;10.816;2022-10-31T08:33:38;12.00;99.90
9383;DHT22;4731;49.708;10.816;2022-10-31T08:36:09;12.20;99.90
9383;DHT22;4731;49.708;10.816;2022-10-31T08:38:35;12.30;99.90
9383;DHT22;4731;49.708;10.816;2022-10-31T08:41:04;12.60;99.90
9383;DHT22;4731;49.708;10.816;2022-10-31T08:43:31;12.60;99.90
9383;DHT22;4731;49.708;10.816;2022-10-31T08:45:58;12.50;99.90
9383;DHT22;4731;49.708;10.816;2022-10-31T08:48:24;12.70;99.90
9383;DHT22;4731;49.708;10.816;2022-10-31T08:50:51;12.70;99.90
9383;DHT22;4731;49.708;10.816;2022-10-31T08:53:23;14.10;99.90
9383;DHT22;4731;49.708;10.816;2022-10-31T08:55:50;13.50;99.90
9383;DHT22;4731;49.708;10.816;2022-10-31T08:58:18;12.40;99.90
9383;DHT22;4731;49.708;10.816;2022-10-31T09:00:48;12.40;99.90
9383;DHT22;4731;49.708;10.816;2022-10-31T09:03:17;12.40;99.90
9383;DHT22;4731;49.708;10.816;2022-10-31T09:05:44;12.60;99.90
9383;DHT22;4731;49.708;10.816;2022-10-31T09:08:12;12.70;99.90
9383;DHT22;4731;49.708;10.816;2022-10-31T09:10:41;13.90;99.90
9383;DHT22;4731;49.708;10.816;2022-10-31T09:13:10;12.60;99.90
9383;DHT22;4731;49.708;10.816;2022-10-31T09:15:38;12.30;99.90
9383;DHT22;4731;49.708;10.816;2022-10-31T09:18:05;12.30;99.90
9383;DHT22;4731;49.708;10.816;2022-10-31T09:20:34;12.10;99.90
9383;DHT22;4731;49.708;10.816;2022-10-31T09:23:03;12.50;99.90
9383;DHT22;4731;49.708;10.816;2022-10-31T09:25:30;13.00;99.90
9383;DHT22;4731;49.708;10.816;2022-10-31T09:27:59;12.90;99.90
9383;DHT22;4731;49.708;10.816;2022-10-31T09:30:29;13.20;99.90
9383;DHT22;4731;49.708;10.816;2022-10-31T09:32:57;13.00;99.90
9383;DHT22;4731;49.708;10.816;2022-10-31T09:35:24;12.90;99.90
9383;DHT22;4731;49.708;10.816;2022-10-31T09:37:54;13.20;99.90
9383;DHT22;4731;49.708;10.816;2022-10-31T09:40:21;13.20;99.90
9383;DHT22;4731;49.708;10.816;2022-10-31T09:42:55;13.50;99.90
9383;DHT22;4731;49.708;10.816;2022-10-31T09:45:26;13.20;99.90
9383;DHT22;4731;49.708;10.816;2022-10-31T09:48:07;13.40;99.90
9383;DHT22;4731;49.708;10.816;2022-10-31T09:50:40;13.60;99.90
9383;DHT22;4731;49.708;10.816;2022-10-31T09:53:12;13.90;99.90
9383;DHT22;4731;49.708;10.816;2022-10-31T09:55:42;14.10;99.90
9383;DHT22;4731;49.708;10.816;2022-10-31T09:58:22;13.90;99.90
9383;DHT22;4731;49.708;10.816;2022-10-31T10:00:52;14.20;99.90
9383;DHT22;4731;49.708;10.816;2022-10-31T10:03:31;14.00;99.90
9383;DHT22;4731;49.708;10.816;2022-10-31T10:06:04;14.60;99.90
9383;DHT22;4731;49.708;10.816;2022-10-31T10:08:34;14.30;99.90
9383;DHT22;4731;49.708;10.816;2022-10-31T10:11:18;14.30;99.90
9383;DHT22;4731;49.708;10.816;2022-10-31T10:14:03;14.60;99.90
9383;DHT22;4731;49.708;10.816;2022-10-31T10:16:45;14.60;99.90
9383;DHT22;4731;49.708;10.816;2022-10-31T10:19:29;14.80;99.90
9383;DHT22;4731;49.708;10.816;2022-10-31T10:22:07;15.20;99.90
9383;DHT22;4731;49.708;10.816;2022-10-31T10:24:50;16.00;99.90
9383;DHT22;4731;49.708;10.816;2022-10-31T10:27:24;16.50;99.90
9383;DHT22;4731;49.708;10.816;2022-10-31T10:29:58;16.20;99.90
9383;DHT22;4731;49.708;10.816;2022-10-31T10:32:31;15.90;99.90
9383;DHT22;4731;49.708;10.816;2022-10-31T10:35:19;15.60;99.90
9383;DHT22;4731;49.708;10.816;2022-10-31T10:37:49;15.30;99.90
9383;DHT22;4731;49.708;10.816;2022-10-31T10:40:19;15.10;99.90
9383;DHT22;4731;49.708;10.816;2022-10-31T10:42:55;15.20;99.90
9383;DHT22;4731;49.708;10.816;2022-10-31T10:45:45;15.70;99.90
9383;DHT22;4731;49.708;10.816;2022-10-31T10:48:39;15.80;99.90
9383;DHT22;4731;49.708;10.816;2022-10-31T10:51:19;16.40;99.90
9383;DHT22;4731;49.708;10.816;2022-10-31T10:53:54;16.60;99.90
9383;DHT22;4731;49.708;10.816;2022-10-31T10:56:36;16.50;99.90
9383;DHT22;4731;49.708;10.816;2022-10-31T10:59:06;17.00;99.90
9383;DHT22;4731;49.708;10.816;2022-10-31T11:01:35;17.20;99.90
9383;DHT22;4731;49.708;10.816;2022-10-31T11:04:07;17.50;99.90
9383;DHT22;4731;49.708;10.816;2022-10-31T11:06:37;17.50;99.90
9383;DHT22;4731;49.708;10.816;2022-10-31T11:09:09;17.60;99.90
9383;DHT22;4731;49.708;10.816;2022-10-31T11:11:38;17.70;99.90
9383;DHT22;4731;49.708;10.816;2022-10-31T11:14:12;17.70;99.90
9383;DHT22;4731;49.708;10.816;2022-10-31T11:16:43;17.70;99.90
9383;DHT22;4731;49.708;10.816;2022-10-31T11:19:17;17.80;99.90
9383;DHT22;4731;49.708;10.816;2022-10-31T11:21:44;18.00;99.90
9383;DHT22;4731;49.708;10.816;2022-10-31T11:24:15;17.40;99.90
9383;DHT22;4731;49.708;10.816;2022-10-31T11:26:43;17.30;99.90
9383;DHT22;4731;49.708;10.816;2022-10-31T11:29:16;17.70;99.90
9383;DHT22;4731;49.708;10.816;2022-10-31T11:31:45;18.30;99.90
9383;DHT22;4731;49.708;10.816;2022-10-31T11:34:26;18.70;99.90
9383;DHT22;4731;49.708;10.816;2022-10-31T11:36:54;18.90;99.90
9383;DHT22;4731;49.708;10.816;2022-10-31T11:39:24;19.00;99.90
9383;DHT22;4731;49.708;10.816;2022-10-31T11:41:52;19.40;99.90
9383;DHT22;4731;49.708;10.816;2022-10-31T11:44:22;19.70;99.90
9383;DHT22;4731;49.708;10.816;2022-10-31T11:46:55;19.50;99.90
9383;DHT22;4731;49.708;10.816;2022-10-31T11:49:29;19.90;99.90
9383;DHT22;4731;49.708;10.816;2022-10-31T11:51:59;20.40;99.90
9383;DHT22;4731;49.708;10.816;2022-10-31T11:54:29;20.80;99.90
9383;DHT22;4731;49.708;10.816;2022-10-31T11:56:56;21.00;99.90
9383;DHT22;4731;49.708;10.816;2022-10-31T11:59:28;21.10;99.90
9383;DHT22;4731;49.708;10.816;2022-10-31T12:01:56;20.60;99.90
9383;DHT22;4731;49.708;10.816;2022-10-31T12:04:30;21.00;99.90
9383;DHT22;4731;49.708;10.816;2022-10-31T12:06:59;20.90;99.90
9383;DHT22;4731;49.708;10.816;2022-10-31T12:09:28;21.20;99.90
9383;DHT22;4731;49.708;10.816;2022-10-31T12:12:21;21.30;99.90
9383;DHT22;4731;49.708;10.816;2022-10-31T12:14:59;21.60;99.90
9383;DHT22;4731;49.708;10.816;2022-10-31T12:17:34;21.80;99.90
9383;DHT22;4731;49.708;10.816;2022-10-31T12:20:11;22.00;99.90
9383;DHT22;4731;49.708;10.816;2022-10-31T12:22:46;21.50;99.90
9383;DHT22;4731;49.708;10.816;2022-10-31T12:25:28;22.10;99.90
9383;DHT22;4731;49.708;10.816;2022-10-31T12:28:14;22.20;99.90
9383;DHT22;4731;49.708;10.816;2022-10-31T12:30:53;22.20;99.90
9383;DHT22;4731;49.708;10.816;2022-10-31T12:33:42;21.00;99.90
9383;DHT22;4731;49.708;10.816;2022-10-31T12:36:37;23.00;99.90
9383;DHT22;4731;49.708;10.816;2022-10-31T12:39:24;23.00;99.90
9383;DHT22;4731;49.708;10.816;2022-10-31T12:41:52;23.50;99.90
9383;DHT22;4731;49.708;10.816;2022-10-31T12:44:44;23.20;99.90
9383;DHT22;4731;49.708;10.816;2022-10-31T12:47:27;23.10;99.90
9383;DHT22;4731;49.708;10.816;2022-10-31T12:50:10;22.50;99.90
9383;DHT22;4731;49.708;10.816;2022-10-31T12:52:50;22.50;99.90
9383;DHT22;4731;49.708;10.816;2022-10-31T12:55:32;22.10;99.90
9383;DHT22;4731;49.708;10.816;2022-10-31T12:58:04;21.40;99.90
9383;DHT22;4731;49.708;10.816;2022-10-31T13:00:37;20.60;99.90
9383;DHT22;4731;49.708;10.816;2022-10-31T13:03:18;20.00;99.90
9383;DHT22;4731;49.708;10.816;2022-10-31T13:05:49;19.90;99.90
9383;DHT22;4731;49.708;10.816;2022-10-31T13:08:21;19.80;99.90
9383;DHT22;4731;49.708;10.816;2022-10-31T13:10:52;19.60;99.90
9383;DHT22;4731;49.708;10.816;2022-10-31T13:13:27;19.50;99.90
9383;DHT22;4731;49.708;10.816;2022-10-31T13:16:00;19.40;99.90
9383;DHT22;4731;49.708;10.816;2022-10-31T13:18:30;19.40;99.90
9383;DHT22;4731;49.708;10.816;2022-10-31T13:21:01;19.50;99.90
9383;DHT22;4731;49.708;10.816;2022-10-31T13:23:32;19.40;99.90
9383;DHT22;4731;49.708;10.816;2022-10-31T13:26:03;19.40;99.90
9383;DHT22;4731;49.708;10.816;2022-10-31T13:28:36;19.10;99.90
9383;DHT22;4731;49.708;10.816;2022-10-31T13:31:05;19.10;99.90
9383;DHT22;4731;49.708;10.816;2022-10-31T13:33:37;18.70;99.90
9383;DHT22;4731;49.708;10.816;2022-10-31T13:36:15;18.60;99.90
9383;DHT22;4731;49.708;10.816;2022-10-31T13:38:50;18.30;99.90
9383;DHT22;4731;49.708;10.816;2022-10-31T13:41:31;18.00;99.90
9383;DHT22;4731;49.708;10.816;2022-10-31T13:44:01;18.10;99.90
9383;DHT22;4731;49.708;10.816;2022-10-31T13:46:36;18.00;99.90
9383;DHT22;4731;49.708;10.816;2022-10-31T13:49:04;18.00;99.90
9383;DHT22;4731;49.708;10.816;2022-10-31T13:51:32;18.00;99.90
9383;DHT22;4731;49.708;10.816;2022-10-31T13:54:20;17.80;99.90
9383;DHT22;4731;49.708;10.816;2022-10-31T13:56:49;17.70;99.90
9383;DHT22;4731;49.708;10.816;2022-10-31T13:59:22;17.50;99.90
9383;DHT22;4731;49.708;10.816;2022-10-31T14:01:52;17.60;99.90
9383;DHT22;4731;49.708;10.816;2022-10-31T14:04:22;17.50;99.90
9383;DHT22;4731;49.708;10.816;2022-10-31T14:06:55;17.50;99.90
9383;DHT22;4731;49.708;10.816;2022-10-31T14:09:31;17.50;99.90
9383;DHT22;4731;49.708;10.816;2022-10-31T14:12:02;17.70;99.90
9383;DHT22;4731;49.708;10.816;2022-10-31T14:14:39;17.60;99.90
9383;DHT22;4731;49.708;10.816;2022-10-31T14:17:18;17.60;99.90
9383;DHT22;4731;49.708;10.816;2022-10-31T14:19:59;17.30;99.90
9383;DHT22;4731;49.708;10.816;2022-10-31T14:22:30;17.50;99.90
9383;DHT22;4731;49.708;10.816;2022-10-31T14:24:58;17.30;99.90
9383;DHT22;4731;49.708;10.816;2022-10-31T14:27:44;17.20;99.90
9383;DHT22;4731;49.708;10.816;2022-10-31T14:30:17;17.10;99.90
9383;DHT22;4731;49.708;10.816;2022-10-31T14:32:52;17.00;99.90
9383;DHT22;4731;49.708;10.816;2022-10-31T14:35:20;17.00;99.90
9383;DHT22;4731;49.708;10.816;2022-10-31T14:38:05;17.00;99.90
9383;DHT22;4731;49.708;10.816;2022-10-31T14:40:45;17.00;99.90
9383;DHT22;4731;49.708;10.816;2022-10-31T14:43:39;16.90;99.90
9383;DHT22;4731;49.708;10.816;2022-10-31T14:46:17;16.90;99.90
9383;DHT22;4731;49.708;10.816;2022-10-31T14:49:02;16.80;99.90
9383;DHT22;4731;49.708;10.816;2022-10-31T14:51:35;16.80;99.90
9383;DHT22;4731;49.708;10.816;2022-10-31T14:54:05;16.70;99.90
9383;DHT22;4731;49.708;10.816;2022-10-31T14:56:37;16.70;99.90
9383;DHT22;4731;49.708;10.816;2022-10-31T14:59:11;16.60;99.90
9383;DHT22;4731;49.708;10.816;2022-10-31T15:01:39;16.60;99.90
9383;DHT22;4731;49.708;10.816;2022-10-31T15:04:16;16.40;99.90
9383;DHT22;4731;49.708;10.816;2022-10-31T15:06:46;16.40;99.90
9383;DHT22;4731;49.708;10.816;2022-10-31T15:09:25;16.30;99.90
9383;DHT22;4731;49.708;10.816;2022-10-31T15:11:53;16.20;99.90
9383;DHT22;4731;49.708;10.816;2022-10-31T15:14:23;16.20;99.90
9383;DHT22;4731;49.708;10.816;2022-10-31T15:16:51;16.10;99.90
9383;DHT22;4731;49.708;10.816;2022-10-31T15:19:21;16.00;99.90
9383;DHT22;4731;49.708;10.816;2022-10-31T15:21:51;16.00;99.90
9383;DHT22;4731;49.708;10.816;2022-10-31T15:24:18;15.90;99.90
9383;DHT22;4731;49.708;10.816;2022-10-31T15:26:48;15.90;99.90
9383;DHT22;4731;49.708;10.816;2022-10-31T15:29:18;15.80;99.90
9383;DHT22;4731;49.708;10.816;2022-10-31T15:31:51;15.80;99.90
9383;DHT22;4731;49.708;10.816;2022-10-31T15:34:22;15.70;99.90
9383;DHT22;4731;49.708;10.816;2022-10-31T15:36:51;15.70;99.90
9383;DHT22;4731;49.708;10.816;2022-10-31T15:39:18;15.70;99.90
9383;DHT22;4731;49.708;10.816;2022-10-31T15:41:49;15.70;99.90
9383;DHT22;4731;49.708;10.816;2022-10-31T15:44:21;15.60;99.90
9383;DHT22;4731;49.708;10.816;2022-10-31T15:46:56;15.60;99.90
9383;DHT22;4731;49.708;10.816;2022-10-31T15:49:29;15.50;99.90
9383;DHT22;4731;49.708;10.816;2022-10-31T15:51:57;15.30;99.90
9383;DHT22;4731;49.708;10.816;2022-10-31T15:54:25;15.20;99.90
9383;DHT22;4731;49.708;10.816;2022-10-31T15:56:53;16.00;99.90
9383;DHT22;4731;49.708;10.816;2022-10-31T15:59:23;15.40;99.90
9383;DHT22;4731;49.708;10.816;2022-10-31T16:02:00;15.00;99.90
9383;DHT22;4731;49.708;10.816;2022-10-31T16:04:28;15.00;99.90
9383;DHT22;4731;49.708;10.816;2022-10-31T16:07:02;15.00;99.90
9383;DHT22;4731;49.708;10.816;2022-10-31T16:09:49;14.90;99.90
9383;DHT22;4731;49.708;10.816;2022-10-31T16:12:16;14.90;99.90
9383;DHT22;4731;49.708;10.816;2022-10-31T16:14:44;14.80;99.90
9383;DHT22;4731;49.708;10.816;2022-10-31T16:17:13;14.70;99.90
9383;DHT22;4731;49.708;10.816;2022-10-31T16:19:49;14.50;99.90
9383;DHT22;4731;49.708;10.816;2022-10-31T16:22:20;14.50;99.90